Latest Weather Observations for Port Macquarie Airport

IDN60801

Issued at 9:03 pm EST Wednesday 5 August 2020 (issued every 10 minutes, with the page automatically refreshed every 10 minutes)

About weather observations | Map of weather stations | Latest weather observations for NSW | Other Formats
Station Details ID: 060139 Name: PORT MACQUARIE AIRPORT AWS Lat: -31.43 Lon: 152.87 Height: 4.2 m
Data from the previous 72 hours. | See also: Recent months at Port Macquarie Airport
Date/Time
EST
Temp
°C
App
Temp
°C
Dew
Point
°C
Rel
Hum
%
Delta-T
°C
Wind Press
QNH
hPa
Press
MSL
hPa
Rain since
9am
mm
Dir  Spd
km/h
Gust
km/h
Spd
kts
Gust
kts
05/09:00pm 5.3 3.5 3.6 89 0.7 WSW 2 11 1 6 1015.3 1015.3 0.0
05/08:30pm 5.3 3.9 3.3 87 0.8 CALM 0 0 0 0 1015.0 1015.0 0.0
05/08:00pm 5.9 3.8 3.7 86 0.9 SW 4 6 2 3 1014.8 1014.8 0.0
05/07:30pm 6.2 4.8 3.7 84 1.1 CALM 0 0 0 0 1014.7 1014.7 0.0
05/07:00pm 6.3 4.0 2.8 78 1.4 SW 4 9 2 5 1014.5 1014.5 0.0
05/06:30pm 8.1 6.6 3.0 70 2.2 CALM 0 0 0 0 1014.1 1014.1 0.0
05/06:00pm 10.1 8.3 3.2 62 3.0 WNW 2 7 1 4 1013.9 1013.9 0.0
05/05:30pm 14.8 12.4 -0.5 35 6.4 NE 2 9 1 5 1013.5 1013.5 0.0
05/05:00pm 16.0 13.1 1.7 38 6.3 NW 6 7 3 4 1013.1 1013.1 0.0
05/04:30pm 18.2 13.7 -0.1 29 7.9 SW 13 20 7 11 1012.7 1012.7 0.0
05/04:00pm 18.7 14.8 1.2 31 7.8 S 11 17 6 9 1012.2 1012.2 0.0
05/03:30pm 18.8 15.3 3.4 36 7.2 SSE 11 15 6 8 1012.1 1012.1 0.0
05/03:00pm 19.4 16.4 6.2 42 6.6 SSW 11 15 6 8 1011.9 1011.9 0.0
05/02:30pm 19.2 17.2 7.0 45 6.2 S 7 15 4 8 1011.9 1011.9 0.0
05/02:00pm 19.0 17.3 7.4 47 5.9 ESE 6 13 3 7 1012.1 1012.1 0.0
05/01:30pm 18.4 16.0 7.2 48 5.6 SSW 9 15 5 8 1012.3 1012.3 0.0
05/01:00pm 18.8 17.5 7.6 48 5.7 NNW 4 11 2 6 1012.4 1012.4 0.0
05/12:30pm 18.0 16.2 7.1 49 5.5 WNW 6 11 3 6 1012.7 1012.7 0.0
05/12:00pm 17.3 15.3 7.1 51 5.1 W 7 15 4 8 1013.2 1013.2 0.0
05/11:30am 17.3 15.1 7.9 54 4.8 SW 9 15 5 8 1013.6 1013.6 0.0
05/11:00am 16.2 13.4 6.9 54 4.6 SSW 11 17 6 9 1014.1 1014.1 0.0
05/10:30am 15.4 12.2 6.9 57 4.2 SSW 13 17 7 9 1014.5 1014.5 0.0
05/10:00am 15.2 12.1 7.3 59 3.9 SSW 13 20 7 11 1014.7 1014.7 0.0
05/09:30am 14.2 10.6 6.8 61 3.6 SW 15 19 8 10 1014.7 1014.7 0.0
05/09:00am 13.4 9.8 6.7 64 3.2 SW 15 20 8 11 1014.5 1014.5 0.2
05/08:30am 12.4 9.9 8.1 75 2.1 SW 11 15 6 8 1014.5 1014.5 0.2
05/08:00am 9.4 8.4 8.8 96 0.3 WSW 4 9 2 5 1014.2 1014.2 0.2
05/07:30am 6.7 5.9 6.3 97 0.2 CALM 0 0 0 0 1014.0 1014.0 0.2
05/07:00am 5.1 3.5 4.7 97 0.2 NW 2 6 1 3 1013.6 1013.6 0.2
05/06:30am 4.1 1.5 3.4 95 0.3 WSW 6 7 3 4 1013.2 1013.2 0.2
05/06:00am 4.3 2.9 3.4 94 0.4 CALM 0 0 0 0 1013.1 1013.1 0.2
05/05:30am 4.6 3.2 3.7 94 0.4 CALM 0 0 0 0 1012.6 1012.6 0.2
05/05:00am 4.7 3.3 3.7 93 0.4 CALM 0 0 0 0 1012.2 1012.2 0.2
05/04:30am 5.6 3.6 4.4 92 0.5 WSW 4 7 2 4 1011.9 1011.9 0.2
05/04:00am 7.3 5.1 6.1 92 0.5 WNW 7 9 4 5 1011.7 1011.7 0.2
05/03:30am 6.5 4.2 4.8 89 0.7 SSW 6 7 3 4 1011.6 1011.6 0.2
05/03:00am 8.2 7.3 6.0 86 1.0 CALM 0 6 0 3 1011.7 1011.7 0.2
05/02:30am 8.2 7.0 6.3 88 0.9 NW 2 7 1 4 1011.9 1011.9 0.2
05/02:00am 8.4 6.8 6.5 88 0.9 NW 4 7 2 4 1012.1 1012.1 0.2
05/01:30am 8.2 6.2 6.3 88 0.9 WNW 6 9 3 5 1012.2 1012.2 0.2
05/01:00am 8.6 5.7 6.7 88 0.9 NW 11 13 6 7 1012.5 1012.5 0.2
05/12:30am 8.4 6.2 6.4 87 0.9 WNW 7 11 4 6 1012.4 1012.4 0.2
05/12:00am 8.5 7.0 6.8 89 0.8 WNW 4 7 2 4 1012.3 1012.3 0.2
 
Date/Time
EST
Temp
°C
App
Temp
°C
Dew
Point
°C
Rel
Hum
%
Delta-T
°C
Wind Press
QNH
hPa
Press
MSL
hPa
Rain since
9am
mm
Dir  Spd
km/h
Gust
km/h
Spd
kts
Gust
kts
04/11:30pm 9.3 8.9 8.4 94 0.4 CALM 0 0 0 0 1012.4 1012.4 0.2
04/11:00pm 9.7 9.4 8.6 93 0.5 CALM 0 0 0 0 1012.5 1012.5 0.2
04/10:30pm 10.4 9.6 9.8 96 0.3 NW 4 7 2 4 1012.5 1012.5 0.2
04/10:00pm 10.9 10.6 10.1 95 0.4 NW 2 7 1 4 1012.5 1012.5 0.2
04/09:30pm 10.4 9.1 9.2 92 0.6 NW 6 7 3 4 1012.5 1012.5 0.2
04/09:00pm 11.1 11.1 9.9 92 0.6 CALM 0 0 0 0 1012.5 1012.5 0.2
04/08:30pm 11.9 12.0 10.1 89 0.9 CALM 0 0 0 0 1012.3 1012.3 0.2
04/08:00pm 11.9 12.1 10.6 92 0.7 CALM 0 0 0 0 1012.3 1012.3 0.2
04/07:30pm 11.7 10.6 9.8 88 1.0 WSW 6 7 3 4 1012.2 1012.2 0.2
04/07:00pm 11.7 11.5 8.9 83 1.4 CALM 0 0 0 0 1012.1 1012.1 0.2
04/06:30pm 13.1 13.2 10.1 82 1.5 CALM 0 0 0 0 1011.9 1011.9 0.2
04/06:00pm 14.6 14.7 10.0 74 2.4 CALM 0 6 0 3 1011.5 1011.5 0.2
04/05:30pm 18.5 16.9 10.1 58 4.5 NE 9 13 5 7 1011.2 1011.2 0.2
04/05:00pm 19.0 17.5 10.6 58 4.5 NNE 9 13 5 7 1010.9 1010.9 0.2
04/04:30pm 20.1 18.0 11.1 56 4.9 NE 13 19 7 10 1010.5 1010.5 0.2
04/04:00pm 20.4 17.3 10.2 52 5.5 NE 17 24 9 13 1010.2 1010.2 0.2
04/03:30pm 20.8 17.7 10.3 51 5.7 NE 17 24 9 13 1009.9 1009.9 0.2
04/03:00pm 21.2 17.7 10.1 49 6.0 ENE 19 24 10 13 1009.7 1009.7 0.2
04/02:30pm 22.7 20.5 7.7 38 7.8 NNE 9 15 5 8 1009.7 1009.7 0.2
04/02:00pm 22.5 19.4 7.1 37 8.0 N 13 17 7 9 1009.9 1009.9 0.2
04/01:30pm 22.8 20.6 7.8 38 7.9 NW 9 19 5 10 1010.1 1010.1 0.2
04/01:00pm 22.1 19.5 6.3 36 8.0 NW 9 15 5 8 1010.3 1010.3 0.2
04/12:30pm 21.8 19.8 6.1 36 7.9 NNE 6 13 3 7 1011.0 1011.0 0.2
04/12:00pm 21.8 20.2 8.0 41 7.2 ENE 6 9 3 5 1011.6 1011.6 0.2
04/11:30am 20.8 19.0 7.8 43 6.7 NE 7 11 4 6 1012.4 1012.4 0.2
04/11:00am 19.4 17.6 9.3 52 5.3 N 9 15 5 8 1013.2 1013.2 0.2
04/10:30am 17.6 16.3 10.0 61 4.0 NNW 7 9 4 5 1013.7 1013.7 0.2
04/10:00am 15.4 13.6 9.3 67 3.1 NW 9 11 5 6 1014.2 1014.2 0.2
04/09:30am 14.0 11.9 8.4 69 2.8 NW 9 13 5 7 1014.5 1014.5 0.0
04/09:00am 12.8 11.1 8.3 74 2.2 NW 7 11 4 6 1014.6 1014.6 0.0
04/08:30am 11.1 8.8 7.6 79 1.7 NNW 9 11 5 6 1014.8 1014.8 0.0
04/08:00am 9.6 7.9 7.4 86 1.0 NW 6 7 3 4 1014.8 1014.8 0.0
04/07:30am 8.3 7.2 7.1 92 0.6 NW 2 7 1 4 1014.7 1014.7 0.0
04/07:00am 7.2 4.6 6.3 94 0.4 NW 9 11 5 6 1014.7 1014.7 0.0
04/06:30am 6.6 4.8 5.6 93 0.4 NW 4 9 2 5 1015.0 1015.0 0.0
04/06:00am 6.1 4.6 4.9 92 0.5 WNW 2 6 1 3 1015.1 1015.1 0.0
04/05:30am 8.0 6.8 6.5 90 0.7 W 2 6 1 3 1014.9 1014.9 0.0
04/05:00am 7.9 6.7 6.4 90 0.7 WNW 2 7 1 4 1014.9 1014.9 0.0
04/04:30am 7.8 6.6 6.6 92 0.6 NNW 2 7 1 4 1014.9 1014.9 0.0
04/04:00am 8.0 7.3 6.8 92 0.6 CALM 0 0 0 0 1015.0 1015.0 0.0
04/03:30am 8.6 7.9 7.1 90 0.7 CALM 0 0 0 0 1015.0 1015.0 0.0
04/03:00am 9.3 7.4 7.7 90 0.8 WNW 7 11 4 6 1015.2 1015.2 0.0
04/02:30am 9.2 7.1 8.3 94 0.4 WNW 9 13 5 7 1015.5 1015.5 0.0
04/02:00am 9.5 7.2 9.0 97 0.2 NW 11 13 6 7 1015.5 1015.5 0.0
04/01:30am 9.4 7.8 8.9 97 0.2 NW 7 9 4 5 1015.8 1015.8 0.0
04/01:00am 9.1 8.7 8.3 95 0.4 CALM 0 0 0 0 1016.0 1016.0 0.0
04/12:30am 9.9 9.8 9.4 97 0.2 CALM 0 0 0 0 1016.2 1016.2 0.0
04/12:00am 8.6 8.1 7.8 95 0.4 CALM 0 0 0 0 1016.4 1016.4 0.0
 
Date/Time
EST
Temp
°C
App
Temp
°C
Dew
Point
°C
Rel
Hum
%
Delta-T
°C
Wind Press
QNH
hPa
Press
MSL
hPa
Rain since
9am
mm
Dir  Spd
km/h
Gust
km/h
Spd
kts
Gust
kts
03/11:30pm 9.8 9.6 9.2 96 0.3 CALM 0 0 0 0 1016.6 1016.6 0.0
03/11:00pm 9.2 8.8 8.4 95 0.4 CALM 0 0 0 0 1016.7 1016.7 0.0
03/10:44pm 9.3 9.0 8.5 95 0.4 CALM 0 0 0 0 1016.7 1016.7 0.0
03/10:30pm 9.2 8.8 8.4 95 0.4 CALM 0 0 0 0 1016.8 1016.8 0.0
03/10:26pm 9.4 9.1 8.6 95 0.4 CALM 0 0 0 0 1016.8 1016.8 0.0
03/10:00pm 9.5 9.1 8.4 93 0.5 CALM 0 0 0 0 1017.0 1017.0 0.0
03/09:30pm 10.0 9.8 8.9 93 0.5 CALM 0 7 0 4 1017.1 1017.1 0.0
03/09:00pm 10.4 10.3 9.5 94 0.4 CALM 0 0 0 0 1017.1 1017.1 0.0
03/08:30pm 10.9 9.6 10.0 94 0.5 N 7 7 4 4 1017.0 1017.0 0.0
03/08:00pm 11.3 11.3 9.9 91 0.7 CALM 0 0 0 0 1016.8 1016.8 0.0
03/07:30pm 12.6 12.9 10.8 89 0.9 CALM 0 0 0 0 1016.7 1016.7 0.0
03/07:00pm 13.0 13.2 10.7 86 1.2 CALM 0 0 0 0 1016.6 1016.6 0.0
03/06:30pm 14.9 14.4 10.9 77 2.1 N 4 7 2 4 1016.3 1016.3 0.0
03/06:00pm 16.8 16.3 11.9 73 2.7 NNE 6 9 3 5 1016.3 1016.3 0.0
03/05:30pm 17.4 16.3 11.9 70 3.0 NNE 9 13 5 7 1016.2 1016.2 0.0
03/05:00pm 18.2 17.1 12.0 67 3.4 NE 9 13 5 7 1016.3 1016.3 0.0
03/04:30pm 19.1 17.2 11.9 63 4.0 ENE 13 17 7 9 1016.2 1016.2 0.0
03/04:00pm 19.8 18.0 12.1 61 4.3 ENE 13 17 7 9 1016.3 1016.3 0.0
03/03:30pm 20.5 18.6 13.0 62 4.3 ENE 15 19 8 10 1016.3 1016.3 0.0
03/03:00pm 20.4 18.5 13.1 63 4.1 ENE 15 19 8 10 1016.2 1016.2 0.0
03/02:30pm 20.5 18.8 12.5 60 4.5 ENE 13 17 7 9 1016.4 1016.4 0.0
03/02:00pm 20.3 18.8 11.8 58 4.7 ENE 11 15 6 8 1016.5 1016.5 0.0
03/01:30pm 21.0 20.3 11.3 54 5.4 NE 6 15 3 8 1017.1 1017.1 0.0
03/01:00pm 21.0 19.8 10.2 50 5.8 NNE 7 15 4 8 1017.5 1017.5 0.0
03/12:30pm 20.3 18.3 10.1 52 5.5 NNE 11 15 6 8 1017.9 1017.9 0.0
03/12:00pm 20.5 19.0 10.6 53 5.4 N 9 13 5 7 1018.4 1018.4 0.0
03/11:30am 19.2 16.8 10.2 56 4.8 N 13 19 7 10 1019.0 1019.0 0.0
03/11:00am 18.3 16.6 11.1 63 3.9 NNW 11 17 6 9 1019.7 1019.7 0.0
03/10:30am 16.7 15.2 11.8 73 2.7 N 11 15 6 8 1020.3 1020.3 0.0
03/10:00am 15.2 14.1 12.0 81 1.7 NNW 9 13 5 7 1020.7 1020.7 0.0
03/09:30am 13.8 12.4 10.8 82 1.6 NW 9 11 5 6 1021.2 1021.2 0.0
03/09:00am 12.6 11.1 10.5 87 1.1 NW 9 11 5 6 1021.4 1021.4 0.0
03/08:30am 11.1 9.8 10.0 93 0.6 NW 7 11 4 6 1021.5 1021.5 0.0
03/08:00am 9.8 7.9 8.9 94 0.4 NNW 9 11 5 6 1021.3 1021.3 0.0
03/07:30am 9.1 7.6 8.6 97 0.2 NW 6 9 3 5 1021.2 1021.2 0.0
03/07:00am 7.8 6.1 7.4 97 0.2 NW 6 7 3 4 1021.1 1021.1 0.0
03/06:30am 7.5 6.1 7.1 97 0.2 NW 4 7 2 4 1021.2 1021.2 0.0
03/06:00am 7.9 7.3 7.5 97 0.2 CALM 0 0 0 0 1021.1 1021.1 0.0
03/05:30am 7.8 6.1 7.4 97 0.2 NW 6 7 3 4 1021.1 1021.1 0.0
03/05:00am 7.7 5.9 7.3 97 0.2 NW 6 9 3 5 1020.9 1020.9 0.0
03/04:30am 8.5 8.1 8.1 97 0.2 CALM 0 0 0 0 1020.8 1020.8 0.0
03/04:00am 8.6 7.4 8.2 97 0.2 WNW 4 7 2 4 1020.9 1020.9 0.0
03/03:30am 8.4 7.6 8.0 97 0.2 WNW 2 6 1 3 1021.0 1021.0 0.0
03/03:00am 8.5 7.7 8.2 98 0.1 WNW 2 6 1 3 1021.1 1021.1 0.0
03/02:30am 7.7 7.1 7.4 98 0.1 CALM 0 0 0 0 1021.4 1021.4 0.0
03/02:00am 7.5 6.8 7.1 97 0.2 CALM 0 0 0 0 1021.7 1021.7 0.0
03/01:54am 7.8 7.2 7.4 97 0.2 CALM 0 0 0 0 1021.8 1021.8 0.0
03/01:30am 7.1 6.3 6.5 96 0.3 CALM 0 0 0 0 1021.8 1021.8 0.0
03/01:00am 7.8 7.2 7.4 97 0.2 CALM 0 0 0 0 1022.1 1022.1 0.0
03/12:30am 8.8 8.4 8.4 97 0.2 CALM 0 0 0 0 1022.3 1022.3 0.0
03/12:00am 7.4 6.7 6.8 96 0.3 CALM 0 0 0 0 1022.6 1022.6 0.0
 
Date/Time
EST
Temp
°C
App
Temp
°C
Dew
Point
°C
Rel
Hum
%
Delta-T
°C
Wind Press
QNH
hPa
Press
MSL
hPa
Rain since
9am
mm
Dir  Spd
km/h
Gust
km/h
Spd
kts
Gust
kts
02/11:43pm 7.4 6.7 7.0 97 0.2 CALM 0 0 0 0 1022.7 1022.7 0.0
02/11:30pm 7.5 6.8 6.9 96 0.3 CALM 0 0 0 0 1022.8 1022.8 0.0
02/11:00pm 7.7 7.0 7.1 96 0.3 CALM 0 0 0 0 1023.0 1023.0 0.0
02/10:30pm 7.8 7.2 7.2 96 0.3 CALM 0 0 0 0 1023.1 1023.1 0.0
02/10:24pm 8.0 7.4 7.2 95 0.4 CALM 0 0 0 0 1023.1 1023.1 0.0
02/10:00pm 7.8 7.1 6.9 94 0.4 CALM 0 0 0 0 1023.2 1023.2 0.0
02/09:30pm 8.8 8.3 7.9 94 0.4 CALM 0 0 0 0 1023.3 1023.3 0.0
02/09:11pm 8.9 8.4 8.0 94 0.4 CALM 0 0 0 0 1023.5 1023.5 0.0

Other formats

Comma delimited format used in spreadsheet applications
http://www.bom.gov.au/fwo/IDN60801/IDN60801.94786.axf

JavaScript Object Notation format (JSON) in row-major order
http://www.bom.gov.au/fwo/IDN60801/IDN60801.94786.json

Data quality

Most of these data are generated automatically and are frequently updated. Quality checks on data are not normally performed. It is possible for incorrect values to appear. Refer to information at About Latest Weather Observations and please check the disclaimer before using these data.